Time;durP1;ratioP1;P1;durP2;ratioP2;P2;SDS_P1;SDS_P2;PMS_P1;PMS_P2;Temp;Humidity;BMP_temperature;BMP_pressure;BME280_temperature;BME280_humidity;BME280_pressure;Samples;Min_cycle;Max_cycle;Signal;HPM_P1;HPM_P2
2021/03/04 00:02:05;;;;;;;46.97;30.90;;;;;;;6.25;70.03;101870.13;5058134;28;20169;-78
2021/03/04 00:04:30;;;;;;;41.07;27.60;;;;;;;6.49;69.86;101854.81;5058530;28;20172;-77
2021/03/04 00:06:56;;;;;;;44.67;31.50;;;;;;;6.19;70.66;101869.88;5058177;28;20166;-79
2021/03/04 00:09:21;;;;;;;45.90;32.13;;;;;;;6.57;69.59;101856.03;5058070;28;20569;-79
2021/03/04 00:11:46;;;;;;;41.53;29.90;;;;;;;6.48;70.72;101870.28;5058274;28;20162;-78
2021/03/04 00:14:12;;;;;;;48.43;34.10;;;;;;;5.94;70.44;101868.72;5058031;28;20587;-77
2021/03/04 00:16:37;;;;;;;54.30;37.60;;;;;;;6.13;70.43;101869.56;5057948;28;20177;-78
2021/03/04 00:19:04;;;;;;;48.80;36.10;;;;;;;6.56;68.47;101871.50;5075750;28;20177;-75
2021/03/04 00:21:29;;;;;;;51.73;37.17;;;;;;;6.67;67.83;101870.31;5077939;28;20570;-77
2021/03/04 00:23:54;;;;;;;58.70;39.50;;;;;;;6.44;69.40;101870.97;5077276;28;20512;-76
2021/03/04 00:26:19;;;;;;;63.13;39.43;;;;;;;6.08;70.37;101871.97;5077819;28;20228;-76
2021/03/04 00:28:45;;;;;;;58.23;40.00;;;;;;;6.17;70.41;101871.50;5078159;28;20263;-76
2021/03/04 00:31:10;;;;;;;57.60;37.23;;;;;;;5.91;71.41;101871.13;5078211;28;20601;-77
2021/03/04 00:33:35;;;;;;;56.00;39.70;;;;;;;5.82;72.21;101869.03;5079904;28;20288;-77
2021/03/04 00:36:01;;;;;;;58.80;40.50;;;;;;;6.04;71.04;101860.56;5077923;28;20273;-77
2021/03/04 00:38:26;;;;;;;61.87;41.57;;;;;;;6.09;70.29;101862.50;5078436;28;20260;-77
2021/03/04 00:40:51;;;;;;;60.17;39.93;;;;;;;5.67;71.60;101858.81;5077827;28;20202;-77
2021/03/04 00:43:16;;;;;;;56.53;38.60;;;;;;;5.69;72.46;101864.94;5077881;28;20188;-76
2021/03/04 00:45:42;;;;;;;61.60;39.40;;;;;;;5.44;72.87;101864.56;5078291;28;20185;-76
2021/03/04 00:48:08;;;;;;;59.83;40.10;;;;;;;5.69;72.31;101857.19;5077869;28;20173;-78
2021/03/04 00:50:34;;;;;;;59.03;38.70;;;;;;;5.69;72.72;101858.91;5077782;28;20477;-76
2021/03/04 00:52:59;;;;;;;64.80;39.37;;;;;;;5.66;71.08;101859.63;5078235;28;20407;-75
2021/03/04 00:55:24;;;;;;;64.57;40.57;;;;;;;5.69;71.34;101852.00;5077878;28;20467;-76
2021/03/04 00:57:50;;;;;;;56.40;39.13;;;;;;;5.42;71.91;101856.75;5080916;28;20191;-76
2021/03/04 01:00:15;;;;;;;60.23;37.83;;;;;;;5.03;73.71;101857.47;5082012;28;20176;-76
2021/03/04 01:02:41;;;;;;;55.07;38.43;;;;;;;5.55;72.10;101851.34;5081341;28;20184;-76
2021/03/04 01:05:06;;;;;;;52.30;36.63;;;;;;;5.45;71.15;101856.00;5081405;28;20165;-76
2021/03/04 01:07:32;;;;;;;53.53;36.13;;;;;;;4.95;73.32;101858.78;5081982;28;20233;-75
2021/03/04 01:09:57;;;;;;;57.83;40.33;;;;;;;5.48;71.53;101853.56;5081347;28;20256;-76
2021/03/04 01:12:23;;;;;;;54.30;39.90;;;;;;;5.42;71.15;101848.13;5081315;28;20535;-76
2021/03/04 01:14:48;;;;;;;47.00;33.23;;;;;;;4.94;72.43;101858.66;5081903;28;20576;-76
2021/03/04 01:17:14;;;;;;;45.43;31.73;;;;;;;5.23;72.27;101849.78;5081158;28;20180;-77
2021/03/04 01:19:39;;;;;;;44.20;30.70;;;;;;;5.17;71.41;101852.09;5080631;28;20248;-77
2021/03/04 01:22:04;;;;;;;38.17;27.97;;;;;;;5.69;69.86;101844.25;5081456;28;20535;-76
2021/03/04 01:24:30;;;;;;;46.43;30.00;;;;;;;5.10;70.77;101848.31;5080987;28;20195;-75
2021/03/04 01:26:55;;;;;;;42.77;28.57;;;;;;;5.03;72.70;101843.63;5082235;28;20264;-76
2021/03/04 01:29:20;;;;;;;41.23;29.03;;;;;;;4.82;71.77;101841.75;5082800;28;20180;-75
2021/03/04 01:31:46;;;;;;;39.87;27.00;;;;;;;5.05;70.81;101818.75;5081179;28;20171;-76
2021/03/04 01:34:11;;;;;;;35.37;25.17;;;;;;;4.63;72.90;101831.28;5082141;28;20221;-76
2021/03/04 01:36:36;;;;;;;32.20;24.30;;;;;;;5.23;70.73;101824.81;5082049;28;20211;-75
2021/03/04 01:39:04;;;;;;;28.97;21.07;;;;;;;5.31;69.93;101825.19;5080909;28;20561;-76
2021/03/04 01:41:30;;;;;;;29.50;21.90;;;;;;;5.13;71.26;101816.53;5080623;28;20172;-76
2021/03/04 01:43:55;;;;;;;32.47;21.67;;;;;;;5.26;70.89;101818.03;5081468;28;20400;-76
2021/03/04 01:46:20;;;;;;;28.90;20.30;;;;;;;4.85;71.27;101810.88;5081027;28;20200;-76
2021/03/04 01:48:46;;;;;;;27.87;19.77;;;;;;;5.20;70.90;101810.88;5080939;28;20251;-77
2021/03/04 01:51:11;;;;;;;24.30;18.47;;;;;;;5.09;71.34;101806.84;5080365;28;20259;-76
2021/03/04 01:53:37;;;;;;;27.43;19.80;;;;;;;5.23;71.13;101806.72;5080347;28;20223;-77
2021/03/04 01:56:02;;;;;;;29.03;19.00;;;;;;;5.00;71.51;101807.31;5079944;28;20173;-78
2021/03/04 01:58:28;;;;;;;26.87;19.37;;;;;;;4.93;71.22;101800.06;5081319;28;20210;-77
2021/03/04 02:00:53;;;;;;;25.07;17.93;;;;;;;5.46;70.05;101806.94;5080371;28;20168;-77
2021/03/04 02:03:23;;;;;;;21.77;15.60;;;;;;;5.04;71.25;101802.34;5080512;28;20507;-78
2021/03/04 02:05:48;;;;;;;19.53;14.40;;;;;;;4.75;71.57;101815.50;5080986;28;20169;-76
2021/03/04 02:08:24;;;;;;;23.97;16.27;;;;;;;5.19;70.67;101807.38;5080315;28;20727;-77
2021/03/04 02:10:52;;;;;;;19.80;14.10;;;;;;;4.93;70.92;101798.34;5080146;28;20165;-77
2021/03/04 02:13:23;;;;;;;24.37;15.17;;;;;;;4.87;72.30;101803.19;5080177;28;20593;-77
2021/03/04 02:15:59;;;;;;;20.33;15.53;;;;;;;4.72;72.49;101803.31;5079630;28;20430;-75
2021/03/04 02:18:27;;;;;;;18.20;14.00;;;;;;;4.81;72.29;101802.91;5079521;28;20418;-75
2021/03/04 02:21:30;;;;;;;18.83;12.70;;;;;;;4.65;72.26;101807.28;5079431;28;20469;-76
2021/03/04 02:24:06;;;;;;;20.07;12.60;;;;;;;4.86;71.71;101794.59;5080169;28;20441;-77
2021/03/04 02:26:43;;;;;;;20.20;13.67;;;;;;;5.25;69.89;101791.31;5079909;28;20455;-77
2021/03/04 02:29:09;;;;;;;25.40;17.20;;;;;;;4.92;71.17;101788.81;5079949;28;20808;-76
2021/03/04 02:31:36;;;;;;;15.33;12.53;;;;;;;5.02;70.86;101788.47;5079075;28;20451;-76
2021/03/04 02:34:02;;;;;;;14.43;11.63;;;;;;;5.05;70.74;101787.75;5079982;28;20459;-75
2021/03/04 02:36:29;;;;;;;15.50;11.30;;;;;;;5.04;70.77;101780.78;5079793;28;20439;-75
2021/03/04 02:38:55;;;;;;;16.53;12.30;;;;;;;4.61;71.23;101774.38;5080361;28;20411;-77
2021/03/04 02:41:21;;;;;;;16.63;11.53;;;;;;;4.61;72.39;101778.66;5079009;28;20446;-74
2021/03/04 02:43:46;;;;;;;13.80;11.10;;;;;;;4.84;69.95;101777.22;5079001;28;20165;-76
2021/03/04 02:46:12;;;;;;;13.77;9.77;;;;;;;5.04;69.68;101773.91;5080029;28;20437;-76
2021/03/04 02:48:37;;;;;;;15.17;11.63;;;;;;;5.28;69.03;101772.47;5078976;28;20567;-76
2021/03/04 02:51:03;;;;;;;14.33;11.00;;;;;;;5.51;68.16;101768.38;5079541;28;20246;-77
2021/03/04 02:53:29;;;;;;;14.93;10.97;;;;;;;5.33;69.50;101763.22;5079131;28;20593;-76
2021/03/04 02:55:55;;;;;;;12.90;10.03;;;;;;;4.70;70.18;101766.22;5078610;28;20563;-76
2021/03/04 02:58:20;;;;;;;13.30;9.70;;;;;;;5.11;69.23;101757.00;5078604;28;20530;-76
2021/03/04 03:00:47;;;;;;;13.60;10.60;;;;;;;5.34;68.33;101768.44;5079557;28;20442;-75
2021/03/04 03:03:13;;;;;;;12.50;9.73;;;;;;;5.33;68.56;101748.59;5078541;28;20165;-75
2021/03/04 03:05:42;;;;;;;13.33;9.83;;;;;;;5.46;68.78;101751.75;5078644;28;20427;-75
2021/03/04 03:08:08;;;;;;;13.47;11.20;;;;;;;4.97;70.50;101751.19;5079841;28;20399;-75
2021/03/04 03:10:34;;;;;;;12.93;9.20;;;;;;;4.89;70.76;101737.00;5079036;28;20812;-76
2021/03/04 03:13:01;;;;;;;15.60;10.37;;;;;;;5.62;68.74;101738.72;5078383;28;20403;-75
2021/03/04 03:15:27;;;;;;;12.60;9.73;;;;;;;5.63;68.38;101729.25;5078742;28;20403;-76
2021/03/04 03:17:53;;;;;;;11.83;9.50;;;;;;;5.33;69.36;101725.34;5078371;28;20425;-76
2021/03/04 03:20:20;;;;;;;12.97;10.37;;;;;;;5.35;68.51;101722.81;5077632;28;20419;-77
2021/03/04 03:22:47;;;;;;;13.30;10.10;;;;;;;5.36;68.84;101722.00;5078693;28;20226;-76
2021/03/04 03:25:13;;;;;;;12.33;9.63;;;;;;;5.25;68.51;101723.19;5078967;28;20550;-76
2021/03/04 03:27:40;;;;;;;13.93;10.47;;;;;;;5.27;68.50;101722.44;5079757;28;20408;-76
2021/03/04 03:30:07;;;;;;;11.30;9.40;;;;;;;5.32;68.32;101715.78;5079615;28;20692;-75
2021/03/04 03:32:34;;;;;;;13.23;9.30;;;;;;;4.98;70.47;101719.38;5079017;28;20403;-78
2021/03/04 03:35:00;;;;;;;13.93;9.30;;;;;;;5.30;68.61;101722.56;5078589;28;20558;-76
2021/03/04 03:37:26;;;;;;;10.30;8.90;;;;;;;5.25;69.04;101718.00;5079207;28;20858;-77
2021/03/04 03:39:51;;;;;;;11.70;9.10;;;;;;;5.68;67.39;101717.41;5077923;28;20495;-77
2021/03/04 03:42:18;;;;;;;11.40;9.50;;;;;;;5.95;65.95;101711.69;5077849;28;20255;-77
2021/03/04 03:44:46;;;;;;;11.10;9.13;;;;;;;6.10;65.66;101706.34;5078350;28;20157;-77
2021/03/04 03:47:11;;;;;;;15.77;10.80;;;;;;;5.27;67.74;101711.22;5078483;28;20415;-78
2021/03/04 03:49:38;;;;;;;12.53;10.00;;;;;;;5.35;67.69;101704.72;5078989;28;20418;-77
2021/03/04 03:52:04;;;;;;;10.93;9.73;;;;;;;5.13;67.83;101702.81;5079122;28;20165;-77
2021/03/04 03:54:29;;;;;;;14.43;9.90;;;;;;;5.41;68.16;101699.81;5078296;28;20462;-77
2021/03/04 03:56:56;;;;;;;11.53;9.60;;;;;;;5.39;68.29;101702.31;5060969;28;20462;-77
2021/03/04 03:59:23;;;;;;;17.03;10.63;;;;;;;4.96;69.58;101700.31;5078353;28;20234;-76
2021/03/04 04:01:49;;;;;;;10.90;8.90;;;;;;;5.42;68.14;101700.72;5077640;28;20423;-76
2021/03/04 04:04:14;;;;;;;11.77;8.43;;;;;;;5.32;67.61;101692.53;5077734;28;20517;-76
2021/03/04 04:06:39;;;;;;;12.17;9.80;;;;;;;5.46;66.39;101693.16;5078897;28;20515;-76
2021/03/04 04:09:05;;;;;;;19.40;9.27;;;;;;;5.39;67.22;101691.97;5077561;28;20481;-75
2021/03/04 04:11:30;;;;;;;11.70;9.13;;;;;;;5.70;66.06;101698.56;5077319;28;20184;-75
2021/03/04 04:13:56;;;;;;;10.53;9.20;;;;;;;5.86;65.59;101689.78;5078839;28;20279;-76
2021/03/04 04:16:23;;;;;;;10.70;8.27;;;;;;;5.30;67.03;101693.25;5078401;28;20227;-76
2021/03/04 04:18:48;;;;;;;13.90;8.83;;;;;;;5.73;65.17;101692.63;5077614;28;20595;-76
2021/03/04 04:21:14;;;;;;;10.10;8.97;;;;;;;5.86;64.38;101686.31;5077749;28;20422;-76
2021/03/04 04:23:43;;;;;;;10.03;7.90;;;;;;;5.52;65.92;101679.59;5077442;28;20248;-75
2021/03/04 04:26:09;;;;;;;9.60;8.60;;;;;;;5.70;65.50;101680.44;5078075;28;20524;-75
2021/03/04 04:28:35;;;;;;;11.30;8.07;;;;;;;5.32;66.47;101684.75;5080026;28;20415;-77
2021/03/04 04:31:00;;;;;;;11.13;8.13;;;;;;;5.67;65.82;101675.16;5085342;28;20419;-76
2021/03/04 04:33:25;;;;;;;10.43;8.30;;;;;;;5.49;65.67;101672.59;5090935;28;20213;-76
2021/03/04 04:35:51;;;;;;;10.23;8.13;;;;;;;5.52;65.55;101672.75;5095608;28;20196;-77
2021/03/04 04:38:16;;;;;;;8.03;7.23;;;;;;;5.44;66.03;101668.94;5090381;28;20172;-75
2021/03/04 04:40:42;;;;;;;9.33;7.33;;;;;;;5.33;66.64;101660.69;5084174;28;20255;-77
2021/03/04 04:43:07;;;;;;;11.80;9.00;;;;;;;5.82;63.97;101645.56;5083395;28;20196;-77
2021/03/04 04:45:33;;;;;;;10.47;7.20;;;;;;;5.03;66.65;101650.69;5082303;28;20178;-75
2021/03/04 04:47:58;;;;;;;9.30;7.87;;;;;;;5.72;63.89;101645.19;5082526;28;20173;-76
2021/03/04 04:50:23;;;;;;;10.73;8.83;;;;;;;5.00;66.92;101642.78;5082571;28;20188;-76
2021/03/04 04:52:49;;;;;;;8.30;7.50;;;;;;;5.59;64.84;101648.06;5085334;28;20173;-75
2021/03/04 04:55:14;;;;;;;8.73;7.37;;;;;;;5.69;64.69;101636.41;5089063;28;20208;-77
2021/03/04 04:57:39;;;;;;;8.77;7.20;;;;;;;5.88;64.00;101632.91;5095356;28;20184;-77
2021/03/04 05:00:06;;;;;;;9.00;7.70;;;;;;;5.98;63.67;101636.81;5085646;28;20169;-77
2021/03/04 05:02:32;;;;;;;8.87;7.77;;;;;;;5.56;64.25;101630.69;5082500;28;20165;-76
2021/03/04 05:04:57;;;;;;;10.50;7.63;;;;;;;5.71;64.84;101635.66;5083042;28;20405;-76
2021/03/04 05:07:22;;;;;;;9.90;8.03;;;;;;;6.12;62.66;101632.25;5081532;28;20251;-76
2021/03/04 05:09:48;;;;;;;9.43;7.70;;;;;;;5.43;65.01;101627.50;5081704;28;20606;-77
2021/03/04 05:12:13;;;;;;;11.10;7.47;;;;;;;5.63;64.25;101631.84;5081922;28;20165;-76
2021/03/04 05:14:39;;;;;;;12.07;8.37;;;;;;;5.85;64.35;101619.84;5081575;28;20271;-77
2021/03/04 05:17:04;;;;;;;8.97;7.07;;;;;;;5.06;65.65;101630.16;5081471;28;20173;-77
2021/03/04 05:19:29;;;;;;;9.00;8.10;;;;;;;6.06;63.39;101633.75;5081972;28;20522;-77
2021/03/04 05:21:55;;;;;;;12.57;8.27;;;;;;;5.70;63.29;101626.13;5080285;28;20219;-77
2021/03/04 05:24:20;;;;;;;9.57;7.00;;;;;;;6.23;62.04;101618.03;5081501;28;20256;-78
2021/03/04 05:26:45;;;;;;;7.83;7.03;;;;;;;6.54;61.08;101624.47;5082254;28;20221;-77
2021/03/04 05:29:10;;;;;;;8.83;7.50;;;;;;;6.07;62.51;101620.00;5084256;28;20539;-76
2021/03/04 05:31:36;;;;;;;8.33;7.23;;;;;;;5.64;63.48;101619.78;5082338;28;20165;-75
2021/03/04 05:34:01;;;;;;;8.27;7.47;;;;;;;6.13;62.24;101610.69;5081796;28;20197;-75
2021/03/04 05:36:26;;;;;;;9.77;8.00;;;;;;;6.32;61.40;101623.59;5079900;28;20213;-75
2021/03/04 05:38:52;;;;;;;8.53;6.40;;;;;;;5.80;62.92;101616.16;5079458;28;20230;-75
2021/03/04 05:41:22;;;;;;;7.83;7.03;;;;;;;6.12;61.51;101608.94;5079033;28;20161;-76
2021/03/04 05:43:48;;;;;;;8.50;7.00;;;;;;;5.78;63.35;101607.44;5079354;28;20558;-76
2021/03/04 05:46:14;;;;;;;6.80;6.17;;;;;;;5.68;64.12;101612.25;5080169;28;20465;-76
2021/03/04 05:48:43;;;;;;;8.80;6.30;;;;;;;5.42;63.99;101612.78;5079708;28;20411;-76
2021/03/04 05:51:12;;;;;;;6.93;6.23;;;;;;;5.82;63.20;101609.34;5078744;28;20502;-76
2021/03/04 05:53:38;;;;;;;7.50;6.80;;;;;;;5.84;62.37;101606.00;5079739;28;20760;-77
2021/03/04 05:56:04;;;;;;;7.83;7.00;;;;;;;5.86;62.38;101604.38;5062015;28;20431;-76
2021/03/04 05:58:30;;;;;;;7.80;7.00;;;;;;;6.30;62.33;101596.72;5079372;28;20169;-76
2021/03/04 06:00:56;;;;;;;12.07;8.70;;;;;;;6.33;62.27;101595.97;5078939;28;20441;-76
2021/03/04 06:03:21;;;;;;;15.77;11.63;;;;;;;6.30;62.19;101591.56;5079342;28;20418;-76
2021/03/04 06:05:48;;;;;;;8.70;7.37;;;;;;;6.12;61.69;101590.81;5078597;28;20786;-76
2021/03/04 06:08:14;;;;;;;8.83;7.90;;;;;;;6.39;60.83;101586.75;5079981;28;20553;-76
2021/03/04 06:10:39;;;;;;;8.70;7.47;;;;;;;6.06;62.16;101581.97;5079308;28;20407;-76
2021/03/04 06:13:05;;;;;;;11.97;8.50;;;;;;;6.33;61.21;101578.75;5079131;28;20161;-76
2021/03/04 06:15:33;;;;;;;10.87;7.73;;;;;;;5.59;64.56;101577.31;5079804;28;20176;-76
2021/03/04 06:17:59;;;;;;;8.60;7.70;;;;;;;6.03;62.83;101586.13;5078453;28;20438;-76
2021/03/04 06:20:38;;;;;;;10.27;7.77;;;;;;;6.39;62.07;101585.88;5078301;28;20415;-78
2021/03/04 06:23:04;;;;;;;9.73;8.70;;;;;;;6.14;61.52;101584.84;5078469;28;20661;-76
2021/03/04 06:25:29;;;;;;;9.73;8.73;;;;;;;5.77;63.14;101587.59;5059246;28;576472;-76
2021/03/04 06:27:55;;;;;;;10.10;8.30;;;;;;;6.12;62.54;101589.09;5080469;28;20173;-76
2021/03/04 06:30:20;;;;;;;8.60;7.70;;;;;;;6.11;62.62;101584.72;5079494;28;20173;-77
2021/03/04 06:33:00;;;;;;;8.87;7.97;;;;;;;5.83;62.57;101578.38;5079705;28;20204;-76
2021/03/04 06:35:32;;;;;;;9.40;8.40;;;;;;;6.31;61.93;101582.97;5079089;28;20455;-77
2021/03/04 06:37:58;;;;;;;8.20;7.40;;;;;;;5.66;65.04;101572.47;5079972;28;20544;-76
2021/03/04 06:40:30;;;;;;;8.70;7.40;;;;;;;5.77;63.03;101572.06;5062754;28;20442;-77
2021/03/04 06:42:56;;;;;;;13.50;8.00;;;;;;;6.22;61.95;101565.38;5079748;28;20176;-76
2021/03/04 06:45:22;;;;;;;8.97;7.47;;;;;;;6.38;64.65;101572.03;5079509;28;20476;-77
2021/03/04 06:47:47;;;;;;;8.03;6.80;;;;;;;5.83;63.28;101564.53;5080287;28;20547;-76
2021/03/04 06:50:24;;;;;;;7.17;6.23;;;;;;;6.31;61.84;101574.31;5078808;28;20508;-76
2021/03/04 06:52:49;;;;;;;8.87;6.80;;;;;;;6.13;61.50;101580.53;5079376;28;20172;-75
2021/03/04 06:55:15;;;;;;;8.40;6.30;;;;;;;5.97;61.91;101585.84;5078688;28;20462;-75
2021/03/04 06:57:41;;;;;;;7.33;6.53;;;;;;;6.27;61.28;101581.06;5079421;28;20263;-75
2021/03/04 07:00:17;;;;;;;6.70;6.10;;;;;;;6.45;61.16;101587.81;5079923;28;20204;-75
2021/03/04 07:02:53;;;;;;;19.83;12.90;;;;;;;6.16;61.45;101579.75;5078477;28;20208;-75
2021/03/04 07:05:18;;;;;;;11.60;7.40;;;;;;;6.68;60.07;101574.06;5079239;28;20811;-75
2021/03/04 07:07:53;;;;;;;7.53;6.73;;;;;;;5.92;62.49;101575.28;5079172;28;20415;-76
2021/03/04 07:10:20;;;;;;;7.60;6.80;;;;;;;6.25;61.55;101580.13;5079121;28;20171;-74
2021/03/04 07:12:46;;;;;;;9.87;7.37;;;;;;;5.84;63.31;101589.59;5078729;28;20727;-75
2021/03/04 07:15:13;;;;;;;9.83;7.10;;;;;;;6.13;62.22;101589.97;5078919;28;20501;-74
2021/03/04 07:17:39;;;;;;;8.00;7.17;;;;;;;6.63;60.04;101587.66;5079443;28;20515;-76
2021/03/04 07:20:06;;;;;;;11.50;7.60;;;;;;;6.48;60.64;101575.88;5078185;28;20411;-75
2021/03/04 07:22:32;;;;;;;6.93;6.23;;;;;;;6.47;60.93;101586.16;5077905;28;20419;-77
2021/03/04 07:24:58;;;;;;;6.83;6.13;;;;;;;6.51;60.48;101572.53;5079001;28;20430;-77
2021/03/04 07:27:23;;;;;;;6.87;6.20;;;;;;;6.91;59.18;101572.38;5078951;28;20439;-77
2021/03/04 07:29:48;;;;;;;12.37;9.17;;;;;;;6.66;60.22;101572.25;5080782;28;20200;-77
2021/03/04 07:32:15;;;;;;;12.87;7.67;;;;;;;6.55;60.61;101577.03;5079691;28;20466;-77
2021/03/04 07:34:44;;;;;;;6.60;5.93;;;;;;;6.58;60.43;101579.72;5078844;28;20197;-77
2021/03/04 07:37:13;;;;;;;19.80;7.80;;;;;;;6.67;59.69;101574.91;5079251;28;20864;-77
2021/03/04 07:39:39;;;;;;;8.77;7.37;;;;;;;6.40;61.23;101583.34;5077775;28;20788;-76
2021/03/04 07:42:22;;;;;;;7.70;5.90;;;;;;;6.90;60.64;101578.38;5078502;28;20419;-76
2021/03/04 07:44:47;;;;;;;9.90;7.63;;;;;;;6.90;60.55;101572.28;5078606;28;20187;-77
2021/03/04 07:47:13;;;;;;;10.00;7.23;;;;;;;6.93;59.99;101571.53;5078557;28;20415;-77
2021/03/04 07:49:43;;;;;;;7.10;6.37;;;;;;;6.65;61.01;101573.06;5078690;28;20485;-77
2021/03/04 07:52:08;;;;;;;7.77;6.20;;;;;;;6.82;60.19;101572.03;5077813;28;20192;-77
2021/03/04 07:54:34;;;;;;;7.60;6.33;;;;;;;7.05;58.93;101580.66;5079141;28;20447;-76
2021/03/04 07:57:18;;;;;;;9.33;6.57;;;;;;;7.08;59.20;101580.78;5078543;28;20185;-76
2021/03/04 08:00:04;;;;;;;9.67;6.43;;;;;;;6.81;60.39;101579.75;5078634;28;20419;-77
2021/03/04 08:02:34;;;;;;;10.60;7.00;;;;;;;6.71;60.58;101584.56;5078364;28;20415;-79
2021/03/04 08:05:13;;;;;;;7.13;5.83;;;;;;;10.59;63.94;101562.75;5076865;28;20463;-64
2021/03/04 08:07:40;;;;;;;10.90;6.20;;;;;;;10.67;49.21;101556.81;5078069;28;20426;-75
2021/03/04 08:10:06;;;;;;;7.33;5.67;;;;;;;8.65;54.01;101561.00;5078275;28;20415;-75
2021/03/04 08:12:43;;;;;;;5.77;5.17;;;;;;;7.80;56.71;101562.56;5077898;28;20695;-74
2021/03/04 08:15:09;;;;;;;16.57;6.37;;;;;;;7.59;58.04;101563.59;5078139;28;20966;-74
2021/03/04 08:17:36;;;;;;;6.80;6.10;;;;;;;7.08;59.20;101562.63;5078085;28;20502;-74
2021/03/04 08:20:18;;;;;;;8.80;6.13;;;;;;;6.67;60.15;101568.81;5077963;28;20545;-74
2021/03/04 08:22:48;;;;;;;9.97;5.63;;;;;;;6.57;60.75;101565.88;5077869;28;20783;-75
2021/03/04 08:25:22;;;;;;;6.40;5.73;;;;;;;6.88;60.23;101566.19;5077952;28;20474;-73
2021/03/04 08:27:48;;;;;;;7.73;6.10;;;;;;;6.72;60.32;101555.25;5077996;28;20415;-75
2021/03/04 08:30:14;;;;;;;7.07;5.70;;;;;;;7.04;59.61;101550.38;5077810;28;20422;-74
2021/03/04 08:32:39;;;;;;;6.53;5.93;;;;;;;6.97;60.04;101556.16;5078266;28;20407;-77
2021/03/04 08:35:35;;;;;;;8.87;7.17;;;;;;;6.88;61.43;101548.91;5077489;28;20566;-78
2021/03/04 08:38:03;;;;;;;7.00;4.97;;;;;;;6.82;60.18;101540.00;5077893;28;20276;-79
2021/03/04 08:40:40;;;;;;;7.80;5.83;;;;;;;7.54;59.14;101534.00;5058102;28;20430;-77
2021/03/04 08:43:12;;;;;;;7.50;5.87;;;;;;;7.71;57.64;101529.38;5057977;28;20461;-78
2021/03/04 08:45:38;;;;;;;11.30;5.53;;;;;;;7.55;58.47;101527.94;5058216;28;20423;-78
2021/03/04 08:48:05;;;;;;;5.93;5.20;;;;;;;7.57;57.56;101531.50;5058010;28;20786;-79
2021/03/04 08:50:32;;;;;;;12.77;6.73;;;;;;;7.31;58.56;101523.69;5059561;28;20170;-77
2021/03/04 08:52:58;;;;;;;7.53;5.90;;;;;;;7.61;58.54;101520.41;5058565;28;20426;-76
2021/03/04 08:55:24;;;;;;;7.80;5.13;;;;;;;7.03;59.47;101520.06;5057146;28;20456;-78
2021/03/04 08:57:50;;;;;;;7.97;5.80;;;;;;;7.55;57.92;101525.34;5058196;28;20408;-78
2021/03/04 09:00:16;;;;;;;7.13;6.03;;;;;;;7.81;57.94;101518.47;5057836;28;20170;-78
2021/03/04 09:02:44;;;;;;;9.63;5.67;;;;;;;7.47;58.20;101519.94;5057582;28;20497;-78
2021/03/04 09:05:10;;;;;;;7.80;5.60;;;;;;;7.66;58.17;101526.63;5058298;28;20499;-79
2021/03/04 09:07:45;;;;;;;6.03;5.43;;;;;;;7.67;58.47;101528.41;5057648;28;20416;-79
2021/03/04 09:10:11;;;;;;;10.30;6.17;;;;;;;7.25;59.43;101524.34;5057744;28;20169;-79
2021/03/04 09:12:46;;;;;;;7.70;5.63;;;;;;;7.49;58.26;101525.16;5060647;28;20411;-78
2021/03/04 09:15:15;;;;;;;6.30;5.40;;;;;;;7.59;58.77;101516.88;5077777;28;20551;-79
2021/03/04 09:17:44;;;;;;;10.43;5.80;;;;;;;6.95;60.39;101523.22;5078380;28;20419;-78
2021/03/04 09:20:15;;;;;;;10.23;5.60;;;;;;;7.27;60.20;101519.22;5081391;28;20407;-78
2021/03/04 09:22:41;;;;;;;7.97;5.80;;;;;;;7.53;59.46;101514.06;5081173;28;20498;-78
2021/03/04 09:25:10;;;;;;;9.13;6.87;;;;;;;7.31;60.50;101517.63;5081263;28;20470;-77
2021/03/04 09:27:39;;;;;;;11.20;6.43;;;;;;;7.38;60.40;101514.41;5081207;28;20409;-79
2021/03/04 09:30:06;;;;;;;9.20;6.60;;;;;;;7.72;59.03;101510.38;5087109;28;20472;-79
2021/03/04 09:32:33;;;;;;;6.40;5.80;;;;;;;7.57;59.23;101501.22;5085868;28;20419;-79
2021/03/04 09:34:59;;;;;;;9.03;6.47;;;;;;;7.81;58.97;101504.63;5084262;28;20714;-79
2021/03/04 09:37:25;;;;;;;8.87;6.80;;;;;;;7.52;59.22;101497.63;5080626;28;20442;-76
2021/03/04 09:39:52;;;;;;;6.10;5.60;;;;;;;7.78;59.98;101488.94;5080761;28;20177;-75
2021/03/04 09:42:20;;;;;;;9.30;5.50;;;;;;;7.97;58.28;101486.13;5081103;28;20422;-77
2021/03/04 09:44:51;;;;;;;15.53;6.67;;;;;;;8.01;58.42;101494.88;5080863;28;20420;-76
2021/03/04 09:47:35;;;;;;;7.90;6.63;;;;;;;7.86;58.94;101498.75;5081011;28;20472;-76
2021/03/04 09:50:03;;;;;;;8.63;6.00;;;;;;;7.35;60.47;101494.44;5081041;28;20422;-77
2021/03/04 09:52:31;;;;;;;8.97;5.87;;;;;;;7.20;60.80;101499.09;5080596;28;20422;-76
2021/03/04 09:55:15;;;;;;;10.90;5.93;;;;;;;7.61;60.41;101506.56;5080649;28;20463;-76
2021/03/04 09:57:44;;;;;;;7.13;5.47;;;;;;;7.41;60.41;101499.84;5080732;28;20422;-75
2021/03/04 10:00:16;;;;;;;8.53;5.67;;;;;;;7.99;58.88;101505.22;5079893;28;20416;-76
2021/03/04 10:02:42;;;;;;;8.73;6.07;;;;;;;8.39;57.62;101497.81;5080550;28;20442;-79
2021/03/04 10:05:13;;;;;;;8.97;6.40;;;;;;;8.62;57.22;101498.53;5080988;28;20471;-77
2021/03/04 10:07:39;;;;;;;10.37;6.20;;;;;;;8.54;56.79;101493.09;5080438;28;20165;-76
2021/03/04 10:10:10;;;;;;;10.13;6.50;;;;;;;8.52;56.84;101493.91;5080321;28;20434;-77
2021/03/04 10:12:45;;;;;;;9.17;5.90;;;;;;;8.23;58.00;101491.25;5079947;28;20164;-77
2021/03/04 10:15:11;;;;;;;11.13;5.70;;;;;;;8.35;57.88;101486.44;5080316;28;20944;-77
2021/03/04 10:17:39;;;;;;;9.50;6.47;;;;;;;8.70;56.32;101486.66;5079529;28;20530;-78
2021/03/04 10:20:05;;;;;;;6.80;5.97;;;;;;;8.53;57.27;101482.66;5080434;28;20177;-77
2021/03/04 10:22:30;;;;;;;6.90;5.47;;;;;;;8.76;55.84;101475.53;5080525;28;20870;-77
2021/03/04 10:24:58;;;;;;;10.03;5.60;;;;;;;8.99;55.96;101484.00;5079918;28;20204;-78
2021/03/04 10:27:23;;;;;;;10.83;6.53;;;;;;;8.32;57.33;101478.56;5080377;28;20276;-78
2021/03/04 10:29:48;;;;;;;6.70;5.63;;;;;;;8.89;55.21;101469.88;5079380;28;20490;-77
2021/03/04 10:32:14;;;;;;;6.90;5.30;;;;;;;9.03;54.76;101483.25;5079881;28;20173;-77
2021/03/04 10:34:39;;;;;;;8.17;5.50;;;;;;;9.08;54.02;101479.06;5079690;28;20242;-77
2021/03/04 10:37:04;;;;;;;11.80;5.57;;;;;;;9.00;54.85;101484.88;5080353;28;20259;-78
2021/03/04 10:39:30;;;;;;;9.10;5.53;;;;;;;8.56;55.21;101499.22;5080063;28;20218;-79
2021/03/04 10:41:55;;;;;;;8.30;5.40;;;;;;;8.58;55.67;101500.16;5079770;28;20176;-79
2021/03/04 10:44:20;;;;;;;9.20;5.60;;;;;;;8.87;55.00;101500.13;5079075;28;20172;-77
2021/03/04 10:46:46;;;;;;;10.03;5.20;;;;;;;8.85;55.33;101499.22;5079697;28;20407;-77
2021/03/04 10:49:11;;;;;;;12.27;5.80;;;;;;;9.07;54.42;101498.09;5079742;28;20234;-77
2021/03/04 10:51:37;;;;;;;8.93;5.50;;;;;;;8.61;56.08;101507.16;5079783;28;20252;-76
2021/03/04 10:54:03;;;;;;;7.13;5.13;;;;;;;8.52;56.29;101504.28;5079349;28;20205;-76
2021/03/04 10:56:28;;;;;;;8.87;5.90;;;;;;;8.61;56.07;101501.97;5080555;28;20454;-78
2021/03/04 10:58:54;;;;;;;8.37;5.40;;;;;;;8.91;54.84;101498.50;5084040;28;20411;-77
2021/03/04 11:01:20;;;;;;;10.20;5.80;;;;;;;8.92;53.99;101495.94;5078814;28;20188;-77
2021/03/04 11:03:46;;;;;;;8.67;4.97;;;;;;;8.42;55.24;101498.78;5080942;28;20542;-77
2021/03/04 11:06:12;;;;;;;6.00;5.40;;;;;;;9.14;53.83;101498.28;5082208;28;20454;-77
2021/03/04 11:08:37;;;;;;;13.40;5.27;;;;;;;10.42;63.71;101491.97;5084259;28;20477;-70
2021/03/04 11:11:03;;;;;;;7.83;5.77;;;;;;;10.50;49.93;101486.03;5083906;28;20424;-76
2021/03/04 11:13:28;;;;;;;15.10;5.10;;;;;;;8.94;53.18;101485.59;5084805;28;20177;-79
2021/03/04 11:15:53;;;;;;;9.13;5.67;;;;;;;9.06;53.42;101485.91;5082015;28;20172;-77
2021/03/04 11:18:19;;;;;;;10.07;5.03;;;;;;;8.77;54.38;101485.13;5080589;28;20183;-79
2021/03/04 11:20:44;;;;;;;9.57;5.30;;;;;;;8.38;54.38;101481.31;5080147;28;20541;-78
2021/03/04 11:23:09;;;;;;;9.87;5.57;;;;;;;8.84;53.46;101486.19;5079336;28;20246;-76
2021/03/04 11:25:35;;;;;;;9.23;4.97;;;;;;;9.33;51.80;101479.72;5078119;28;20224;-77
2021/03/04 11:28:00;;;;;;;9.80;4.60;;;;;;;8.87;53.21;101478.44;5089715;28;20176;-77